sensor_id;sensor_type;location;lat;lon;timestamp;P1;durP1;ratioP1;P2;durP2;ratioP2
20104;SDS011;10212;42.714;23.310;2023-08-12T00:09:57;3.42;;;3.10;;
20104;SDS011;10212;42.714;23.310;2023-08-12T00:19:57;3.90;;;2.55;;
20104;SDS011;10212;42.714;23.310;2023-08-12T00:29:58;4.47;;;2.85;;
20104;SDS011;10212;42.714;23.310;2023-08-12T00:39:59;5.50;;;3.70;;
20104;SDS011;10212;42.714;23.310;2023-08-12T00:49:59;4.38;;;3.55;;
20104;SDS011;10212;42.714;23.310;2023-08-12T01:00:00;5.67;;;3.10;;
20104;SDS011;10212;42.714;23.310;2023-08-12T01:10:01;3.70;;;3.03;;
20104;SDS011;10212;42.714;23.310;2023-08-12T01:20:02;3.05;;;2.75;;
20104;SDS011;10212;42.714;23.310;2023-08-12T01:30:12;3.25;;;2.90;;
20104;SDS011;10212;42.714;23.310;2023-08-12T01:40:14;5.20;;;2.92;;
20104;SDS011;10212;42.714;23.310;2023-08-12T01:50:17;4.28;;;3.10;;
20104;SDS011;10212;42.714;23.310;2023-08-12T02:00:19;3.45;;;3.00;;
20104;SDS011;10212;42.714;23.310;2023-08-12T02:10:19;3.28;;;2.92;;
20104;SDS011;10212;42.714;23.310;2023-08-12T02:20:19;5.80;;;3.50;;
20104;SDS011;10212;42.714;23.310;2023-08-12T02:30:20;6.25;;;4.72;;
20104;SDS011;10212;42.714;23.310;2023-08-12T02:40:20;5.43;;;3.35;;
20104;SDS011;10212;42.714;23.310;2023-08-12T02:50:21;4.20;;;3.55;;
20104;SDS011;10212;42.714;23.310;2023-08-12T03:00:21;3.92;;;3.53;;
20104;SDS011;10212;42.714;23.310;2023-08-12T03:10:22;5.65;;;3.63;;
20104;SDS011;10212;42.714;23.310;2023-08-12T03:20:22;4.72;;;3.75;;
20104;SDS011;10212;42.714;23.310;2023-08-12T03:30:23;7.57;;;3.67;;
20104;SDS011;10212;42.714;23.310;2023-08-12T03:40:23;5.38;;;4.15;;
20104;SDS011;10212;42.714;23.310;2023-08-12T03:50:23;8.50;;;4.82;;
20104;SDS011;10212;42.714;23.310;2023-08-12T04:00:24;9.35;;;6.18;;
20104;SDS011;10212;42.714;23.310;2023-08-12T04:10:24;8.57;;;5.38;;
20104;SDS011;10212;42.714;23.310;2023-08-12T04:20:25;7.95;;;4.72;;
20104;SDS011;10212;42.714;23.310;2023-08-12T04:30:25;6.07;;;4.00;;
20104;SDS011;10212;42.714;23.310;2023-08-12T04:40:26;6.90;;;4.10;;
20104;SDS011;10212;42.714;23.310;2023-08-12T04:50:30;5.05;;;3.80;;
20104;SDS011;10212;42.714;23.310;2023-08-12T05:00:31;9.40;;;4.22;;
20104;SDS011;10212;42.714;23.310;2023-08-12T05:10:32;5.53;;;3.72;;
20104;SDS011;10212;42.714;23.310;2023-08-12T05:20:32;9.95;;;4.30;;
20104;SDS011;10212;42.714;23.310;2023-08-12T05:30:33;13.10;;;4.47;;
20104;SDS011;10212;42.714;23.310;2023-08-12T05:40:34;13.15;;;4.47;;
20104;SDS011;10212;42.714;23.310;2023-08-12T05:50:34;7.05;;;4.15;;
20104;SDS011;10212;42.714;23.310;2023-08-12T06:00:35;5.75;;;3.58;;
20104;SDS011;10212;42.714;23.310;2023-08-12T06:10:35;7.47;;;4.40;;
20104;SDS011;10212;42.714;23.310;2023-08-12T06:20:36;4.85;;;3.80;;
20104;SDS011;10212;42.714;23.310;2023-08-12T06:30:36;5.97;;;3.50;;
20104;SDS011;10212;42.714;23.310;2023-08-12T06:40:37;6.80;;;3.75;;
20104;SDS011;10212;42.714;23.310;2023-08-12T06:50:38;5.57;;;3.35;;
20104;SDS011;10212;42.714;23.310;2023-08-12T07:00:38;5.05;;;3.10;;
20104;SDS011;10212;42.714;23.310;2023-08-12T07:10:42;4.15;;;3.13;;
20104;SDS011;10212;42.714;23.310;2023-08-12T07:20:42;4.63;;;3.55;;
20104;SDS011;10212;42.714;23.310;2023-08-12T07:30:43;6.40;;;3.53;;
20104;SDS011;10212;42.714;23.310;2023-08-12T07:40:43;3.45;;;3.10;;
20104;SDS011;10212;42.714;23.310;2023-08-12T07:50:44;4.50;;;2.65;;
20104;SDS011;10212;42.714;23.310;2023-08-12T08:00:44;3.47;;;3.05;;
20104;SDS011;10212;42.714;23.310;2023-08-12T08:10:44;5.40;;;3.13;;
20104;SDS011;10212;42.714;23.310;2023-08-12T08:20:45;4.72;;;3.88;;
20104;SDS011;10212;42.714;23.310;2023-08-12T08:30:45;8.05;;;5.93;;
20104;SDS011;10212;42.714;23.310;2023-08-12T08:40:46;5.20;;;2.80;;
20104;SDS011;10212;42.714;23.310;2023-08-12T08:50:50;6.80;;;3.10;;
20104;SDS011;10212;42.714;23.310;2023-08-12T09:00:51;7.50;;;2.63;;
20104;SDS011;10212;42.714;23.310;2023-08-12T09:10:52;6.05;;;2.63;;
20104;SDS011;10212;42.714;23.310;2023-08-12T09:20:53;3.20;;;2.90;;
20104;SDS011;10212;42.714;23.310;2023-08-12T09:30:53;4.72;;;2.65;;
20104;SDS011;10212;42.714;23.310;2023-08-12T09:40:55;4.32;;;2.72;;
20104;SDS011;10212;42.714;23.310;2023-08-12T09:50:56;7.07;;;4.65;;
20104;SDS011;10212;42.714;23.310;2023-08-12T10:00:56;4.05;;;2.70;;
20104;SDS011;10212;42.714;23.310;2023-08-12T10:10:57;3.35;;;2.78;;
20104;SDS011;10212;42.714;23.310;2023-08-12T10:20:58;5.78;;;2.80;;
20104;SDS011;10212;42.714;23.310;2023-08-12T10:31:00;4.82;;;2.60;;
20104;SDS011;10212;42.714;23.310;2023-08-12T10:51:19;2.40;;;2.20;;
20104;SDS011;10212;42.714;23.310;2023-08-12T11:01:39;3.17;;;2.80;;
20104;SDS011;10212;42.714;23.310;2023-08-12T11:11:40;2.97;;;2.55;;
20104;SDS011;10212;42.714;23.310;2023-08-12T11:21:40;3.08;;;1.98;;
20104;SDS011;10212;42.714;23.310;2023-08-12T11:31:42;3.72;;;1.77;;
20104;SDS011;10212;42.714;23.310;2023-08-12T11:41:43;2.50;;;2.20;;
20104;SDS011;10212;42.714;23.310;2023-08-12T11:51:43;2.10;;;1.90;;
20104;SDS011;10212;42.714;23.310;2023-08-12T12:01:48;2.25;;;1.60;;
20104;SDS011;10212;42.714;23.310;2023-08-12T12:11:52;3.88;;;3.05;;
20104;SDS011;10212;42.714;23.310;2023-08-12T12:21:53;2.10;;;1.90;;
20104;SDS011;10212;42.714;23.310;2023-08-12T12:31:54;3.22;;;1.85;;
20104;SDS011;10212;42.714;23.310;2023-08-12T12:41:54;4.65;;;4.00;;
20104;SDS011;10212;42.714;23.310;2023-08-12T12:51:54;2.20;;;2.00;;
20104;SDS011;10212;42.714;23.310;2023-08-12T13:01:55;2.13;;;1.92;;
20104;SDS011;10212;42.714;23.310;2023-08-12T13:11:56;2.40;;;2.20;;
20104;SDS011;10212;42.714;23.310;2023-08-12T13:21:57;3.60;;;3.30;;
20104;SDS011;10212;42.714;23.310;2023-08-12T13:31:57;2.25;;;2.00;;
20104;SDS011;10212;42.714;23.310;2023-08-12T13:41:57;2.53;;;2.10;;
20104;SDS011;10212;42.714;23.310;2023-08-12T13:51:58;2.15;;;1.70;;
20104;SDS011;10212;42.714;23.310;2023-08-12T14:01:59;4.18;;;1.90;;
20104;SDS011;10212;42.714;23.310;2023-08-12T14:12:00;2.00;;;1.80;;
20104;SDS011;10212;42.714;23.310;2023-08-12T14:22:00;2.95;;;1.60;;
20104;SDS011;10212;42.714;23.310;2023-08-12T14:32:00;2.20;;;2.00;;
20104;SDS011;10212;42.714;23.310;2023-08-12T14:42:01;1.90;;;1.60;;
20104;SDS011;10212;42.714;23.310;2023-08-12T14:52:03;1.70;;;1.60;;
20104;SDS011;10212;42.714;23.310;2023-08-12T15:02:03;1.80;;;1.70;;
20104;SDS011;10212;42.714;23.310;2023-08-12T15:12:04;1.77;;;1.67;;
20104;SDS011;10212;42.714;23.310;2023-08-12T15:22:05;2.08;;;1.70;;
20104;SDS011;10212;42.714;23.310;2023-08-12T15:32:05;3.45;;;2.08;;
20104;SDS011;10212;42.714;23.310;2023-08-12T15:42:06;2.40;;;1.90;;
20104;SDS011;10212;42.714;23.310;2023-08-12T15:52:07;3.20;;;1.80;;
20104;SDS011;10212;42.714;23.310;2023-08-12T16:02:07;2.85;;;2.58;;
20104;SDS011;10212;42.714;23.310;2023-08-12T16:12:08;8.40;;;4.82;;
20104;SDS011;10212;42.714;23.310;2023-08-12T16:22:08;3.70;;;2.80;;
20104;SDS011;10212;42.714;23.310;2023-08-12T16:32:09;1.95;;;1.85;;
20104;SDS011;10212;42.714;23.310;2023-08-12T16:42:09;2.53;;;1.90;;
20104;SDS011;10212;42.714;23.310;2023-08-12T16:52:10;3.17;;;2.00;;
20104;SDS011;10212;42.714;23.310;2023-08-12T17:02:10;2.08;;;1.88;;
20104;SDS011;10212;42.714;23.310;2023-08-12T17:12:10;3.95;;;2.47;;
20104;SDS011;10212;42.714;23.310;2023-08-12T17:22:11;3.67;;;2.97;;
20104;SDS011;10212;42.714;23.310;2023-08-12T17:32:11;4.53;;;3.95;;
20104;SDS011;10212;42.714;23.310;2023-08-12T17:42:11;4.03;;;2.50;;
20104;SDS011;10212;42.714;23.310;2023-08-12T17:52:12;5.55;;;3.15;;
20104;SDS011;10212;42.714;23.310;2023-08-12T18:02:12;2.75;;;2.25;;
20104;SDS011;10212;42.714;23.310;2023-08-12T18:12:13;2.83;;;2.00;;
20104;SDS011;10212;42.714;23.310;2023-08-12T18:22:13;4.13;;;2.40;;
20104;SDS011;10212;42.714;23.310;2023-08-12T18:32:13;3.92;;;2.70;;
20104;SDS011;10212;42.714;23.310;2023-08-12T18:42:14;4.15;;;3.05;;
20104;SDS011;10212;42.714;23.310;2023-08-12T18:52:14;3.88;;;3.45;;
20104;SDS011;10212;42.714;23.310;2023-08-12T19:02:15;3.50;;;2.80;;
20104;SDS011;10212;42.714;23.310;2023-08-12T19:12:15;4.55;;;4.03;;
20104;SDS011;10212;42.714;23.310;2023-08-12T19:22:17;5.72;;;3.65;;
20104;SDS011;10212;42.714;23.310;2023-08-12T19:32:18;4.20;;;3.33;;
20104;SDS011;10212;42.714;23.310;2023-08-12T19:42:18;6.00;;;3.00;;
20104;SDS011;10212;42.714;23.310;2023-08-12T19:52:19;3.17;;;2.88;;
20104;SDS011;10212;42.714;23.310;2023-08-12T20:02:19;5.28;;;3.08;;
20104;SDS011;10212;42.714;23.310;2023-08-12T20:12:20;4.15;;;3.15;;
20104;SDS011;10212;42.714;23.310;2023-08-12T20:22:20;3.80;;;3.40;;
20104;SDS011;10212;42.714;23.310;2023-08-12T20:32:22;5.22;;;3.50;;
20104;SDS011;10212;42.714;23.310;2023-08-12T20:42:28;7.00;;;3.35;;
20104;SDS011;10212;42.714;23.310;2023-08-12T20:52:29;6.18;;;3.35;;
20104;SDS011;10212;42.714;23.310;2023-08-12T21:02:30;4.63;;;3.33;;
20104;SDS011;10212;42.714;23.310;2023-08-12T21:12:31;6.82;;;3.25;;
20104;SDS011;10212;42.714;23.310;2023-08-12T21:22:31;4.75;;;3.40;;
20104;SDS011;10212;42.714;23.310;2023-08-12T21:32:32;4.30;;;3.30;;
20104;SDS011;10212;42.714;23.310;2023-08-12T21:42:32;3.50;;;3.20;;
20104;SDS011;10212;42.714;23.310;2023-08-12T21:52:32;4.32;;;3.13;;
20104;SDS011;10212;42.714;23.310;2023-08-12T22:02:33;4.63;;;3.80;;
20104;SDS011;10212;42.714;23.310;2023-08-12T22:12:33;3.75;;;3.20;;
20104;SDS011;10212;42.714;23.310;2023-08-12T22:22:34;6.00;;;3.50;;
20104;SDS011;10212;42.714;23.310;2023-08-12T22:32:34;5.07;;;3.55;;
20104;SDS011;10212;42.714;23.310;2023-08-12T22:42:35;4.15;;;3.40;;
20104;SDS011;10212;42.714;23.310;2023-08-12T22:52:35;3.30;;;3.00;;
20104;SDS011;10212;42.714;23.310;2023-08-12T23:02:35;4.63;;;3.35;;
20104;SDS011;10212;42.714;23.310;2023-08-12T23:12:36;4.00;;;3.40;;
20104;SDS011;10212;42.714;23.310;2023-08-12T23:22:36;3.73;;;3.33;;
20104;SDS011;10212;42.714;23.310;2023-08-12T23:32:37;3.28;;;2.97;;
20104;SDS011;10212;42.714;23.310;2023-08-12T23:42:38;4.43;;;3.40;;
20104;SDS011;10212;42.714;23.310;2023-08-12T23:52:38;4.20;;;3.80;;
